Time;durP1;ratioP1;P1;durP2;ratioP2;P2;SDS_P1;SDS_P2;PMS_P1;PMS_P2;Temp;Humidity;BMP_temperature;BMP_pressure;BME280_temperature;BME280_humidity;BME280_pressure;Samples;Min_cycle;Max_cycle;Signal;HPM_P1;HPM_P2
2023/09/07 08:42:01;;;;;;;3.58;3.28;;;;;;;34.36;34.48;99436.56;5030825;28;43635;-79
2023/09/07 08:44:30;;;;;;;2.85;2.65;;;;;;;34.94;33.19;99444.91;5015997;28;41574;-80
2023/09/07 08:46:59;;;;;;;3.28;2.97;;;;;;;35.39;30.65;99460.81;4999433;28;39992;-79
2023/09/07 08:49:28;;;;;;;3.50;3.20;;;;;;;35.66;30.32;99467.47;5034035;28;41653;-79
2023/09/07 08:52:00;;;;;;;3.20;2.90;;;;;;;35.66;31.36;99448.19;5015761;28;43822;-80
2023/09/07 08:54:27;;;;;;;2.80;2.60;;;;;;;36.14;30.30;99467.06;4999733;28;41542;-80
2023/09/07 08:56:57;;;;;;;5.10;3.28;;;;;;;37.04;29.19;99463.44;4999164;28;41262;-79
2023/09/07 08:59:26;;;;;;;3.22;3.03;;;;;;;38.25;28.38;99463.38;5015899;28;42723;-80
2023/09/07 09:01:58;;;;;;;2.80;2.60;;;;;;;39.65;25.55;99475.00;5033347;28;42969;-80
2023/09/07 09:05:24;;;;;;;2.90;2.70;;;;;;;41.23;22.93;99496.41;5016040;28;41367;-80
2023/09/07 09:08:02;;;;;;;2.72;2.53;;;;;;;42.75;21.72;99467.88;5002683;28;42752;-81
2023/09/07 09:10:40;;;;;;;2.72;2.53;;;;;;;44.91;20.95;99483.31;4998119;28;40872;-80
2023/09/07 09:13:30;;;;;;;3.10;2.90;;;;;;;46.43;19.61;99478.25;5014156;28;44207;-78
2023/09/07 09:16:01;;;;;;;3.03;2.83;;;;;;;46.69;18.63;99494.47;5030559;28;42362;-81
2023/09/07 09:18:58;;;;;;;2.90;2.70;;;;;;;46.02;19.79;99483.13;5007368;28;20291;-79
2023/09/07 09:22:14;;;;;;;3.60;3.30;;;;;;;44.70;19.31;99452.88;5013649;28;41709;-78
2023/09/07 09:40:03;;;;;;;5.10;2.80;;;;;;;39.87;23.63;99431.28;5030686;28;44078;-81
2023/09/07 09:43:28;;;;;;;2.58;2.38;;;;;;;40.17;24.02;99428.59;5032391;28;40790;-79
2023/09/07 10:15:09;;;;;;;3.38;2.75;;;;;;;37.11;26.40;99389.50;5031255;28;43536;-79
2023/09/07 10:17:38;;;;;;;2.70;2.50;;;;;;;36.40;26.00;99393.06;4955858;28;39688;-78
2023/09/07 10:20:07;;;;;;;3.13;2.80;;;;;;;35.95;26.47;99397.53;4957209;28;40527;-78
2023/09/07 10:22:34;;;;;;;3.73;3.07;;;;;;;35.50;27.29;99366.28;4957809;28;41936;-79
2023/09/07 10:25:03;;;;;;;3.17;2.97;;;;;;;35.58;27.92;99371.41;4957092;28;43822;-78
2023/09/07 10:27:38;;;;;;;3.20;2.90;;;;;;;35.57;26.97;99383.50;4974011;28;41653;-78
2023/09/07 10:30:11;;;;;;;2.67;2.47;;;;;;;35.56;27.32;99373.56;4957615;28;40790;-79
2023/09/07 10:32:41;;;;;;;4.27;3.10;;;;;;;35.84;27.47;99357.06;4973961;28;43030;-80
2023/09/07 10:35:14;;;;;;;3.33;2.60;;;;;;;36.36;26.68;99373.41;4925763;28;40964;-79
2023/09/07 10:37:42;;;;;;;3.53;3.22;;;;;;;36.51;27.18;99359.03;4958609;28;39895;-79
2023/09/07 10:40:11;;;;;;;2.95;2.63;;;;;;;37.02;25.34;99380.81;4957426;28;42102;-79
2023/09/07 10:42:39;;;;;;;3.38;3.08;;;;;;;37.81;25.53;99366.66;4992041;28;43761;-79
2023/09/07 10:54:16;;;;;;;3.05;2.80;;;;;;;39.66;22.46;99399.03;4958160;28;41983;-79
2023/09/07 11:01:21;;;;;;;2.65;2.45;;;;;;;38.48;24.84;99368.94;4974442;28;41589;-79
2023/09/07 11:04:59;;;;;;;2.50;2.33;;;;;;;38.44;24.40;99376.13;4992268;28;40725;-79
2023/09/07 11:07:45;;;;;;;2.40;2.20;;;;;;;38.29;24.20;99335.31;4894370;29;42201;-80
2023/09/07 11:27:10;;;;;;;2.97;2.78;;;;;;;41.12;20.51;99376.06;5029236;28;43861;-79
2023/09/07 11:29:39;;;;;;;3.53;2.70;;;;;;;41.47;21.15;99369.53;5010004;28;43529;-80
2023/09/07 11:32:07;;;;;;;2.70;2.50;;;;;;;41.66;22.63;99349.47;5029622;28;41656;-80
2023/09/07 11:34:35;;;;;;;2.95;2.75;;;;;;;41.48;21.43;99350.91;4995844;28;42506;-80
2023/09/07 11:37:04;;;;;;;2.97;2.78;;;;;;;42.54;21.32;99355.75;5012453;28;42973;-79
2023/09/07 11:42:22;;;;;;;2.55;2.35;;;;;;;45.51;18.87;99358.25;4996367;28;39779;-80
2023/09/07 11:45:07;;;;;;;2.20;2.00;;;;;;;46.74;18.66;99328.94;5012912;28;42910;-79
2023/09/07 11:47:35;;;;;;;2.90;2.60;;;;;;;48.40;17.58;99372.69;5012504;28;43118;-81
2023/09/07 11:50:03;;;;;;;3.03;2.70;;;;;;;49.68;17.27;99372.56;4980329;28;41329;-80
2023/09/07 11:52:31;;;;;;;2.55;2.35;;;;;;;50.90;16.57;99371.13;5033066;28;41056;-80
2023/09/07 11:54:59;;;;;;;2.92;2.55;;;;;;;51.56;13.94;99372.91;4983496;28;40923;-80
2023/09/07 11:57:27;;;;;;;2.83;2.63;;;;;;;52.14;13.76;99376.31;5000058;28;41739;-80
2023/09/07 11:59:55;;;;;;;2.85;2.22;;;;;;;52.50;13.58;99387.47;4999730;28;41261;-80
2023/09/07 12:02:28;;;;;;;2.60;2.50;;;;;;;52.44;13.70;99377.59;4999917;28;40177;-80
2023/09/07 12:04:55;;;;;;;2.70;2.50;;;;;;;52.27;13.07;99380.75;5013450;28;42025;-80
2023/09/07 12:07:23;;;;;;;3.15;2.47;;;;;;;52.08;12.99;99375.72;4997720;28;42972;-80
2023/09/07 12:09:50;;;;;;;2.83;2.63;;;;;;;51.97;13.03;99383.06;5015199;28;41542;-81
2023/09/07 12:12:18;;;;;;;2.70;2.50;;;;;;;51.42;13.19;99366.81;5015247;28;39634;-81
2023/09/07 12:14:45;;;;;;;2.78;2.50;;;;;;;50.94;13.18;99362.78;5015071;28;41724;-79
2023/09/07 12:17:13;;;;;;;2.60;2.40;;;;;;;50.30;14.21;99354.84;4998258;28;42808;-81
2023/09/07 12:19:42;;;;;;;2.88;2.67;;;;;;;50.33;13.29;99364.59;4998180;28;41378;-81
2023/09/07 12:22:09;;;;;;;2.47;2.28;;;;;;;50.54;13.44;99354.91;5014728;28;40631;-80
2023/09/07 12:24:37;;;;;;;2.00;1.88;;;;;;;50.97;12.82;99356.41;5014639;28;41094;-81
2023/09/07 12:27:05;;;;;;;3.65;2.40;;;;;;;51.32;12.63;99354.78;5013837;28;43099;-81
2023/09/07 12:29:32;;;;;;;2.35;2.20;;;;;;;51.85;13.19;99341.53;4981917;28;42388;-81
2023/09/07 12:32:00;;;;;;;2.65;2.45;;;;;;;51.97;11.83;99354.81;5014766;28;39997;-80
2023/09/07 12:34:27;;;;;;;2.33;2.22;;;;;;;51.89;13.06;99348.16;5014508;28;40642;-80
2023/09/07 12:36:56;;;;;;;2.33;2.22;;;;;;;51.69;11.94;99360.41;5015058;28;42928;-80
2023/09/07 12:39:24;;;;;;;2.00;1.90;;;;;;;51.46;12.07;99350.78;5015538;28;42572;-81
2023/09/07 12:41:51;;;;;;;2.67;2.30;;;;;;;51.49;12.94;99341.59;5015813;28;41487;-81
2023/09/07 12:44:20;;;;;;;2.28;2.10;;;;;;;51.89;12.64;99336.84;5015576;28;41662;-80
2023/09/07 12:46:48;;;;;;;3.70;2.80;;;;;;;51.96;11.19;99341.88;5015356;28;41848;-80
2023/09/07 12:49:25;;;;;;;3.92;2.65;;;;;;;52.05;12.41;99323.59;5014752;28;41311;-80
2023/09/07 12:51:54;;;;;;;2.33;2.05;;;;;;;52.28;12.04;99320.22;5015469;28;39980;-80
2023/09/07 12:54:49;;;;;;;2.55;2.35;;;;;;;52.32;11.09;99309.78;5015502;28;43170;-80
2023/09/07 13:00:51;;;;;;;2.63;2.42;;;;;;;52.21;10.90;99291.69;5030258;28;43303;-80
2023/09/07 13:03:48;;;;;;;2.47;2.28;;;;;;;52.27;11.01;99312.91;5014013;28;40120;-80
2023/09/07 13:06:54;;;;;;;3.00;2.72;;;;;;;52.02;11.90;99281.09;5007615;28;41704;-81
2023/09/07 13:09:28;;;;;;;2.50;2.30;;;;;;;52.45;11.85;99319.84;5013348;28;42838;-81
2023/09/07 13:12:03;;;;;;;2.13;2.03;;;;;;;52.19;11.34;99323.16;4998233;28;42835;-81
2023/09/07 13:14:51;;;;;;;2.78;2.58;;;;;;;51.61;11.71;99268.16;5011448;28;41485;-81
2023/09/07 13:21:33;;;;;;;2.63;2.42;;;;;;;51.19;11.73;99313.59;4997359;28;43171;-79
2023/09/07 13:24:31;;;;;;;2.55;2.33;;;;;;;50.84;12.47;99307.59;5013547;28;41438;-80
2023/09/07 13:26:58;;;;;;;2.55;2.35;;;;;;;50.75;12.56;99303.25;4996929;28;39903;-80
2023/09/07 13:29:28;;;;;;;2.42;2.22;;;;;;;50.67;12.15;99305.00;4997139;28;40906;-81
2023/09/07 13:31:58;;;;;;;3.00;2.70;;;;;;;50.38;11.92;99305.16;4997310;28;41850;-80
2023/09/07 13:34:26;;;;;;;2.78;2.58;;;;;;;50.05;11.83;99302.34;4997337;28;41985;-80
2023/09/07 13:36:54;;;;;;;2.75;2.55;;;;;;;49.75;12.27;99305.22;4965025;28;39838;-79
2023/09/07 13:39:22;;;;;;;2.60;2.40;;;;;;;49.50;12.04;99301.44;4996948;28;41645;-80
2023/09/07 13:41:49;;;;;;;2.50;2.30;;;;;;;49.22;13.23;99292.69;5013570;28;44528;-80
2023/09/07 13:44:17;;;;;;;2.53;2.33;;;;;;;49.15;12.51;99292.38;4997090;28;42888;-80
2023/09/07 13:46:47;;;;;;;2.58;2.38;;;;;;;48.75;13.51;99265.75;5013674;28;40090;-80
2023/09/07 13:49:14;;;;;;;3.10;2.65;;;;;;;48.05;12.74;99281.97;5031284;28;42036;-80
2023/09/07 13:51:42;;;;;;;4.43;2.72;;;;;;;47.17;13.72;99275.81;4980988;28;41928;-80
2023/09/07 13:54:10;;;;;;;3.42;2.65;;;;;;;46.50;14.64;99268.44;5013354;28;42335;-80
2023/09/07 13:56:38;;;;;;;2.40;2.20;;;;;;;46.03;15.30;99271.94;4996904;28;40169;-79
2023/09/07 13:59:08;;;;;;;2.50;2.30;;;;;;;45.63;15.45;99268.97;4996966;28;40220;-80
2023/09/07 14:01:35;;;;;;;2.47;2.28;;;;;;;45.36;16.26;99266.25;5031099;28;43010;-80
2023/09/07 14:04:05;;;;;;;3.05;2.83;;;;;;;45.08;17.17;99240.28;4996967;28;41636;-81
2023/09/07 14:06:33;;;;;;;4.53;2.80;;;;;;;44.91;16.49;99256.84;4980782;28;40991;-81
2023/09/07 14:09:01;;;;;;;2.30;2.20;;;;;;;44.57;16.09;99258.06;4996941;28;42455;-80
2023/09/07 14:11:28;;;;;;;4.15;2.83;;;;;;;44.30;16.17;99238.47;5013403;28;42775;-81
2023/09/07 14:13:57;;;;;;;2.80;2.60;;;;;;;44.17;16.68;99262.44;5012604;28;43264;-80
2023/09/07 14:16:24;;;;;;;2.92;2.72;;;;;;;43.80;16.50;99259.69;5013261;28;39720;-79
2023/09/07 14:18:52;;;;;;;2.80;2.60;;;;;;;43.38;16.34;99258.66;4996459;28;40759;-80
2023/09/07 14:21:24;;;;;;;3.92;2.65;;;;;;;42.95;16.47;99247.50;5012935;28;41815;-79
2023/09/07 14:23:51;;;;;;;3.20;2.90;;;;;;;42.71;17.16;99246.66;5030330;28;42401;-79
2023/09/07 14:26:19;;;;;;;5.75;2.90;;;;;;;42.56;17.48;99242.09;4996496;28;41748;-80
2023/09/07 14:28:46;;;;;;;2.97;2.67;;;;;;;42.42;17.93;99240.31;5012563;28;40845;-79
2023/09/07 14:31:14;;;;;;;4.63;2.75;;;;;;;42.24;17.44;99239.91;5013248;28;42819;-78
2023/09/07 14:33:42;;;;;;;3.00;2.70;;;;;;;42.10;17.18;99244.50;4996187;28;41573;-79
2023/09/07 14:36:10;;;;;;;2.85;2.65;;;;;;;41.84;17.60;99231.91;4996087;28;41484;-78
2023/09/07 14:38:41;;;;;;;3.17;2.92;;;;;;;41.67;17.77;99237.09;5013842;28;40840;-79
2023/09/07 14:41:11;;;;;;;2.78;2.58;;;;;;;41.53;17.04;99239.66;4997195;28;41839;-78
2023/09/07 14:43:38;;;;;;;2.83;2.63;;;;;;;41.34;17.86;99228.38;4997139;28;42290;-78
2023/09/07 14:46:06;;;;;;;3.47;2.50;;;;;;;41.25;17.72;99230.09;4997244;28;40136;-79
2023/09/07 14:48:34;;;;;;;2.63;2.42;;;;;;;40.95;17.75;99224.66;4996945;28;43009;-78
2023/09/07 14:51:02;;;;;;;2.78;2.58;;;;;;;40.47;17.84;99194.56;4997182;28;42938;-79
2023/09/07 20:01:53;;;;;;;2.77;2.10;;;;;;;23.54;41.11;99150.41;5028696;28;43260;-77
2023/09/07 20:04:22;;;;;;;2.20;2.00;;;;;;;23.50;41.20;99153.56;5010468;28;43055;-77
2023/09/07 20:06:50;;;;;;;2.50;2.20;;;;;;;23.41;41.25;99149.19;5010865;28;39943;-76
2023/09/07 20:09:20;;;;;;;2.50;2.30;;;;;;;23.33;41.57;99139.25;4995169;28;40423;-76
2023/09/07 20:11:47;;;;;;;2.60;1.97;;;;;;;23.27;41.80;99140.75;4995321;28;43056;-76
2023/09/07 20:14:15;;;;;;;2.23;2.03;;;;;;;23.32;42.23;99151.06;4998662;28;41758;-77
2023/09/07 20:16:44;;;;;;;2.50;1.87;;;;;;;23.27;42.22;99151.56;4999153;28;40031;-77
2023/09/07 20:19:12;;;;;;;1.83;1.70;;;;;;;23.23;42.18;99155.66;5014912;28;41954;-77
2023/09/07 20:21:40;;;;;;;3.00;2.20;;;;;;;23.19;41.83;99161.53;5015412;28;42112;-77
2023/09/07 20:24:08;;;;;;;2.40;2.10;;;;;;;23.12;42.30;99161.34;5014519;28;42575;-77
2023/09/07 20:26:36;;;;;;;2.50;2.00;;;;;;;23.05;42.47;99163.06;5033032;28;40772;-78
2023/09/07 20:29:05;;;;;;;1.87;1.77;;;;;;;22.90;42.48;99151.22;4998495;28;43179;-78
2023/09/07 20:31:32;;;;;;;2.20;1.80;;;;;;;22.93;42.84;99169.78;5014824;28;43539;-78
2023/09/07 20:34:01;;;;;;;2.23;1.83;;;;;;;22.83;42.65;99158.31;5014847;28;43973;-78
2023/09/07 20:36:29;;;;;;;2.23;2.00;;;;;;;22.82;43.10;99156.63;4998714;28;41257;-78
2023/09/07 20:38:57;;;;;;;2.47;1.90;;;;;;;22.77;43.06;99169.75;4999248;28;41069;-78
2023/09/07 20:41:24;;;;;;;2.03;1.83;;;;;;;22.70;43.37;99169.56;4983158;28;41756;-78
2023/09/07 20:43:55;;;;;;;2.50;2.30;;;;;;;22.65;43.43;99171.03;5013290;28;42532;-78
2023/09/07 20:46:22;;;;;;;2.60;1.73;;;;;;;22.57;43.84;99169.19;5015845;28;41226;-78
2023/09/07 20:48:50;;;;;;;3.70;2.00;;;;;;;22.43;43.74;99157.16;4999491;28;40727;-78
2023/09/07 20:51:19;;;;;;;2.47;1.87;;;;;;;22.26;43.88;99132.97;5033318;28;42785;-78
2023/09/07 20:53:46;;;;;;;2.63;2.17;;;;;;;22.34;43.93;99152.75;4999235;28;41333;-77
2023/09/07 20:56:14;;;;;;;2.30;1.93;;;;;;;22.33;44.14;99161.00;5033529;28;41895;-78
2023/09/07 20:58:41;;;;;;;2.27;2.07;;;;;;;22.29;44.47;99157.78;5015568;28;40826;-77
2023/09/07 21:01:09;;;;;;;2.47;1.60;;;;;;;22.26;44.61;99159.94;4998929;28;41954;-78
2023/09/07 21:03:37;;;;;;;2.13;1.93;;;;;;;22.24;44.72;99157.44;4999207;28;44022;-78
2023/09/07 21:06:04;;;;;;;3.10;2.27;;;;;;;22.20;44.77;99162.31;5014634;28;40819;-78
2023/09/07 21:08:34;;;;;;;1.67;1.57;;;;;;;22.16;45.00;99160.94;4997492;28;40883;-77
2023/09/07 21:11:01;;;;;;;2.13;1.93;;;;;;;22.11;45.15;99162.44;5014328;28;42891;-78
2023/09/07 21:13:29;;;;;;;2.17;1.73;;;;;;;22.06;45.21;99162.91;5032349;28;41713;-78
2023/09/07 21:15:56;;;;;;;3.73;2.00;;;;;;;21.98;45.49;99162.84;5031762;28;40924;-78
2023/09/07 21:18:24;;;;;;;2.63;2.00;;;;;;;21.96;45.37;99169.41;5014258;28;40542;-78
2023/09/07 21:20:52;;;;;;;2.20;2.00;;;;;;;21.91;46.07;99166.34;5014233;28;42224;-78
2023/09/07 21:23:19;;;;;;;2.20;1.90;;;;;;;21.85;46.19;99162.44;4981706;28;41221;-78
2023/09/07 21:25:49;;;;;;;2.67;2.47;;;;;;;21.84;46.02;99166.13;5013314;28;39810;-78
2023/09/07 21:28:16;;;;;;;2.80;2.30;;;;;;;21.80;46.33;99165.59;4998034;28;41654;-78
2023/09/07 21:30:44;;;;;;;2.40;2.20;;;;;;;;;;5013725;28;44024;-78
2023/09/07 21:33:11;;;;;;;2.10;1.90;;;;;;;21.72;46.58;99152.09;4981524;28;42047;-78
2023/09/07 21:35:39;;;;;;;2.70;2.50;;;;;;;21.69;46.35;99155.09;4997586;28;40953;-78
2023/09/07 21:38:07;;;;;;;1.93;1.77;;;;;;;21.66;46.71;99151.88;5015255;28;42514;-77
2023/09/07 21:40:34;;;;;;;2.37;2.07;;;;;;;21.59;46.66;99146.28;4998632;28;42797;-78
2023/09/07 21:43:04;;;;;;;1.90;1.80;;;;;;;21.56;46.86;99156.53;5015447;28;41358;-78
2023/09/07 21:45:32;;;;;;;1.57;1.33;;;;;;;21.50;46.82;99158.84;5015003;28;40790;-78
2023/09/07 21:48:00;;;;;;;1.90;1.80;;;;;;;21.39;46.98;99145.63;5015124;28;42400;-78
2023/09/07 21:50:27;;;;;;;3.00;2.03;;;;;;;21.36;47.28;99150.50;5014967;28;41904;-78
2023/09/07 21:52:55;;;;;;;3.27;2.27;;;;;;;21.28;47.37;99153.09;5015422;28;43043;-78
2023/09/07 21:55:23;;;;;;;2.30;2.10;;;;;;;21.20;47.38;99150.34;5032611;28;40852;-77
2023/09/07 21:57:50;;;;;;;3.00;1.80;;;;;;;21.10;47.71;99145.88;4998676;28;41306;-78
2023/09/07 22:00:21;;;;;;;2.63;2.10;;;;;;;21.06;48.01;99149.88;5014381;28;41686;-78
2023/09/07 22:02:49;;;;;;;2.40;2.00;;;;;;;20.99;48.29;99148.81;5015179;28;41279;-77
2023/09/07 22:05:17;;;;;;;2.43;2.00;;;;;;;20.90;48.42;99136.25;4997913;28;41662;-78
2023/09/07 22:07:44;;;;;;;3.13;2.07;;;;;;;20.91;48.45;99140.63;5013140;28;41910;-78
2023/09/07 22:10:13;;;;;;;3.10;2.07;;;;;;;20.87;48.50;99141.97;4996747;28;43369;-78
2023/09/07 22:12:41;;;;;;;2.03;1.83;;;;;;;20.84;48.99;99136.88;4997323;28;40691;-78
2023/09/07 22:15:09;;;;;;;2.73;2.37;;;;;;;20.72;48.68;99130.88;5013733;28;39861;-78
2023/09/07 22:17:42;;;;;;;2.20;2.00;;;;;;;20.75;49.05;99140.50;5013662;28;41022;-77
2023/09/07 22:20:10;;;;;;;2.27;1.83;;;;;;;20.68;49.16;99139.41;4997138;28;42966;-78
2023/09/07 22:22:38;;;;;;;2.50;2.00;;;;;;;20.63;49.27;99136.34;4997245;28;42144;-78
2023/09/07 22:25:07;;;;;;;2.50;2.10;;;;;;;20.64;49.54;99143.44;4996933;28;39798;-78
2023/09/07 22:27:35;;;;;;;2.13;1.97;;;;;;;20.63;50.24;99144.44;5013649;28;41908;-78
2023/09/07 22:30:04;;;;;;;2.07;1.90;;;;;;;20.58;50.29;99139.50;5013425;28;43268;-78
2023/09/07 22:32:32;;;;;;;3.13;2.30;;;;;;;20.55;50.42;99141.63;5013340;28;43748;-78
2023/09/07 22:35:01;;;;;;;2.23;2.00;;;;;;;20.41;50.10;99126.84;5013162;28;39940;-78
2023/09/07 22:37:29;;;;;;;2.53;1.90;;;;;;;20.39;50.12;99118.09;4997514;28;40583;-77
2023/09/07 22:39:56;;;;;;;3.77;2.70;;;;;;;20.49;49.94;99139.56;4997588;28;41785;-78
2023/09/07 22:42:24;;;;;;;2.67;2.10;;;;;;;20.47;50.21;99146.94;4998096;28;41418;-78
2023/09/07 22:44:52;;;;;;;2.63;2.00;;;;;;;20.43;50.30;99147.22;5014072;28;40222;-78
2023/09/07 22:47:20;;;;;;;2.10;1.63;;;;;;;20.41;50.10;99151.06;5031299;28;42104;-78
2023/09/07 22:49:48;;;;;;;2.87;2.17;;;;;;;20.35;50.08;99144.47;5014109;28;42323;-77
2023/09/07 22:52:17;;;;;;;2.53;2.07;;;;;;;20.31;50.52;99145.72;4998034;28;42700;-76
2023/09/07 22:54:45;;;;;;;2.83;2.20;;;;;;;20.18;50.21;99133.59;5013881;28;41902;-77
